sensor_id;sensor_type;location;lat;lon;timestamp;P1;durP1;ratioP1;P2;durP2;ratioP2
16504;SDS011;8365;51.030;4.696;2023-06-04T00:00:40;4.13;;;2.00;;
16504;SDS011;8365;51.030;4.696;2023-06-04T00:03:11;4.17;;;2.10;;
16504;SDS011;8365;51.030;4.696;2023-06-04T00:05:42;3.30;;;2.13;;
16504;SDS011;8365;51.030;4.696;2023-06-04T00:08:12;2.70;;;2.10;;
16504;SDS011;8365;51.030;4.696;2023-06-04T00:10:43;2.27;;;2.03;;
16504;SDS011;8365;51.030;4.696;2023-06-04T00:13:15;4.20;;;2.30;;
16504;SDS011;8365;51.030;4.696;2023-06-04T00:15:46;3.57;;;2.13;;
16504;SDS011;8365;51.030;4.696;2023-06-04T00:18:16;2.73;;;2.03;;
16504;SDS011;8365;51.030;4.696;2023-06-04T00:20:47;2.30;;;2.10;;
16504;SDS011;8365;51.030;4.696;2023-06-04T00:23:18;3.60;;;2.33;;
16504;SDS011;8365;51.030;4.696;2023-06-04T00:25:50;3.60;;;2.10;;
16504;SDS011;8365;51.030;4.696;2023-06-04T00:28:21;4.03;;;2.40;;
16504;SDS011;8365;51.030;4.696;2023-06-04T00:30:51;4.03;;;2.20;;
16504;SDS011;8365;51.030;4.696;2023-06-04T00:33:22;2.57;;;2.20;;
16504;SDS011;8365;51.030;4.696;2023-06-04T00:35:52;3.80;;;2.20;;
16504;SDS011;8365;51.030;4.696;2023-06-04T00:38:23;2.27;;;1.87;;
16504;SDS011;8365;51.030;4.696;2023-06-04T00:40:54;2.70;;;2.17;;
16504;SDS011;8365;51.030;4.696;2023-06-04T00:43:24;3.93;;;2.30;;
16504;SDS011;8365;51.030;4.696;2023-06-04T00:45:57;4.73;;;1.90;;
16504;SDS011;8365;51.030;4.696;2023-06-04T00:48:27;5.00;;;2.23;;
16504;SDS011;8365;51.030;4.696;2023-06-04T00:50:58;3.73;;;2.20;;
16504;SDS011;8365;51.030;4.696;2023-06-04T00:53:29;2.80;;;2.20;;
16504;SDS011;8365;51.030;4.696;2023-06-04T00:55:59;2.70;;;1.93;;
16504;SDS011;8365;51.030;4.696;2023-06-04T00:58:30;4.70;;;2.33;;
16504;SDS011;8365;51.030;4.696;2023-06-04T01:01:00;4.10;;;2.60;;
16504;SDS011;8365;51.030;4.696;2023-06-04T01:03:34;4.53;;;2.40;;
16504;SDS011;8365;51.030;4.696;2023-06-04T01:06:21;4.50;;;2.57;;
16504;SDS011;8365;51.030;4.696;2023-06-04T01:08:54;3.80;;;2.50;;
16504;SDS011;8365;51.030;4.696;2023-06-04T01:11:34;4.70;;;2.50;;
16504;SDS011;8365;51.030;4.696;2023-06-04T01:14:07;3.30;;;2.57;;
16504;SDS011;8365;51.030;4.696;2023-06-04T01:16:41;3.77;;;2.63;;
16504;SDS011;8365;51.030;4.696;2023-06-04T01:19:43;2.77;;;2.40;;
16504;SDS011;8365;51.030;4.696;2023-06-04T01:25:24;4.27;;;2.90;;
16504;SDS011;8365;51.030;4.696;2023-06-04T01:28:04;5.70;;;3.10;;
16504;SDS011;8365;51.030;4.696;2023-06-04T01:30:36;3.37;;;3.07;;
16504;SDS011;8365;51.030;4.696;2023-06-04T01:33:13;4.67;;;3.47;;
16504;SDS011;8365;51.030;4.696;2023-06-04T01:35:44;5.80;;;3.20;;
16504;SDS011;8365;51.030;4.696;2023-06-04T01:38:15;4.03;;;3.20;;
16504;SDS011;8365;51.030;4.696;2023-06-04T01:40:46;5.73;;;3.40;;
16504;SDS011;8365;51.030;4.696;2023-06-04T01:43:19;7.87;;;3.40;;
16504;SDS011;8365;51.030;4.696;2023-06-04T01:45:49;6.07;;;3.17;;
16504;SDS011;8365;51.030;4.696;2023-06-04T01:48:20;6.10;;;3.17;;
16504;SDS011;8365;51.030;4.696;2023-06-04T01:50:50;5.73;;;3.00;;
16504;SDS011;8365;51.030;4.696;2023-06-04T01:53:21;4.50;;;3.40;;
16504;SDS011;8365;51.030;4.696;2023-06-04T01:55:51;4.40;;;3.03;;
16504;SDS011;8365;51.030;4.696;2023-06-04T01:58:27;6.97;;;3.30;;
16504;SDS011;8365;51.030;4.696;2023-06-04T02:00:59;4.13;;;3.30;;
16504;SDS011;8365;51.030;4.696;2023-06-04T02:03:30;4.27;;;3.50;;
16504;SDS011;8365;51.030;4.696;2023-06-04T02:06:06;4.10;;;2.90;;
16504;SDS011;8365;51.030;4.696;2023-06-04T02:08:37;7.00;;;3.53;;
16504;SDS011;8365;51.030;4.696;2023-06-04T02:11:08;4.00;;;3.40;;
16504;SDS011;8365;51.030;4.696;2023-06-04T02:13:39;5.43;;;3.30;;
16504;SDS011;8365;51.030;4.696;2023-06-04T02:16:09;3.60;;;3.30;;
16504;SDS011;8365;51.030;4.696;2023-06-04T02:18:40;3.73;;;3.30;;
16504;SDS011;8365;51.030;4.696;2023-06-04T02:21:11;4.23;;;3.77;;
16504;SDS011;8365;51.030;4.696;2023-06-04T02:23:44;3.80;;;3.10;;
16504;SDS011;8365;51.030;4.696;2023-06-04T02:26:17;4.53;;;3.57;;
16504;SDS011;8365;51.030;4.696;2023-06-04T02:28:47;4.53;;;3.37;;
16504;SDS011;8365;51.030;4.696;2023-06-04T02:31:20;5.90;;;3.30;;
16504;SDS011;8365;51.030;4.696;2023-06-04T02:33:51;4.50;;;3.27;;
16504;SDS011;8365;51.030;4.696;2023-06-04T02:36:21;6.37;;;3.33;;
16504;SDS011;8365;51.030;4.696;2023-06-04T02:38:52;4.30;;;3.30;;
16504;SDS011;8365;51.030;4.696;2023-06-04T02:41:23;5.10;;;2.90;;
16504;SDS011;8365;51.030;4.696;2023-06-04T02:43:53;5.67;;;3.77;;
16504;SDS011;8365;51.030;4.696;2023-06-04T02:46:24;5.23;;;3.50;;
16504;SDS011;8365;51.030;4.696;2023-06-04T02:48:54;3.73;;;3.27;;
16504;SDS011;8365;51.030;4.696;2023-06-04T02:51:25;5.20;;;3.30;;
16504;SDS011;8365;51.030;4.696;2023-06-04T02:53:55;5.50;;;3.23;;
16504;SDS011;8365;51.030;4.696;2023-06-04T02:56:26;4.73;;;3.67;;
16504;SDS011;8365;51.030;4.696;2023-06-04T02:58:57;5.87;;;3.53;;
16504;SDS011;8365;51.030;4.696;2023-06-04T03:01:27;5.17;;;3.57;;
16504;SDS011;8365;51.030;4.696;2023-06-04T03:03:58;5.63;;;3.43;;
16504;SDS011;8365;51.030;4.696;2023-06-04T03:06:28;4.63;;;3.40;;
16504;SDS011;8365;51.030;4.696;2023-06-04T03:08:59;4.33;;;3.03;;
16504;SDS011;8365;51.030;4.696;2023-06-04T03:11:29;7.17;;;3.30;;
16504;SDS011;8365;51.030;4.696;2023-06-04T03:14:00;3.97;;;3.30;;
16504;SDS011;8365;51.030;4.696;2023-06-04T03:16:31;4.50;;;3.13;;
16504;SDS011;8365;51.030;4.696;2023-06-04T03:19:01;4.57;;;3.40;;
16504;SDS011;8365;51.030;4.696;2023-06-04T03:21:32;5.37;;;3.30;;
16504;SDS011;8365;51.030;4.696;2023-06-04T03:24:02;3.57;;;3.20;;
16504;SDS011;8365;51.030;4.696;2023-06-04T03:26:32;5.20;;;3.70;;
16504;SDS011;8365;51.030;4.696;2023-06-04T03:29:03;6.07;;;3.43;;
16504;SDS011;8365;51.030;4.696;2023-06-04T03:31:33;3.43;;;3.13;;
16504;SDS011;8365;51.030;4.696;2023-06-04T03:34:04;5.30;;;3.30;;
16504;SDS011;8365;51.030;4.696;2023-06-04T03:36:34;8.37;;;3.70;;
16504;SDS011;8365;51.030;4.696;2023-06-04T03:39:08;6.80;;;3.50;;
16504;SDS011;8365;51.030;4.696;2023-06-04T03:41:38;3.73;;;3.40;;
16504;SDS011;8365;51.030;4.696;2023-06-04T03:44:09;5.03;;;3.70;;
16504;SDS011;8365;51.030;4.696;2023-06-04T03:46:39;4.33;;;3.30;;
16504;SDS011;8365;51.030;4.696;2023-06-04T03:49:10;4.63;;;3.70;;
16504;SDS011;8365;51.030;4.696;2023-06-04T03:51:41;3.80;;;3.50;;
16504;SDS011;8365;51.030;4.696;2023-06-04T03:54:14;7.13;;;4.13;;
16504;SDS011;8365;51.030;4.696;2023-06-04T03:56:47;6.87;;;3.50;;
16504;SDS011;8365;51.030;4.696;2023-06-04T03:59:17;6.53;;;4.17;;
16504;SDS011;8365;51.030;4.696;2023-06-04T04:01:48;5.03;;;3.33;;
16504;SDS011;8365;51.030;4.696;2023-06-04T04:04:19;4.77;;;3.40;;
16504;SDS011;8365;51.030;4.696;2023-06-04T04:06:49;6.47;;;4.13;;
16504;SDS011;8365;51.030;4.696;2023-06-04T04:09:20;6.90;;;3.97;;
16504;SDS011;8365;51.030;4.696;2023-06-04T04:11:50;4.17;;;3.77;;
16504;SDS011;8365;51.030;4.696;2023-06-04T04:14:21;5.93;;;4.00;;
16504;SDS011;8365;51.030;4.696;2023-06-04T04:16:51;4.60;;;3.87;;
16504;SDS011;8365;51.030;4.696;2023-06-04T04:19:21;6.70;;;3.53;;
16504;SDS011;8365;51.030;4.696;2023-06-04T04:21:52;5.77;;;3.87;;
16504;SDS011;8365;51.030;4.696;2023-06-04T04:24:23;3.73;;;3.30;;
16504;SDS011;8365;51.030;4.696;2023-06-04T04:26:57;4.00;;;3.60;;
16504;SDS011;8365;51.030;4.696;2023-06-04T04:29:28;5.20;;;3.83;;
16504;SDS011;8365;51.030;4.696;2023-06-04T04:32:02;4.43;;;3.60;;
16504;SDS011;8365;51.030;4.696;2023-06-04T04:34:51;4.20;;;3.37;;
16504;SDS011;8365;51.030;4.696;2023-06-04T04:37:23;4.00;;;3.60;;
16504;SDS011;8365;51.030;4.696;2023-06-04T04:39:56;4.67;;;3.70;;
16504;SDS011;8365;51.030;4.696;2023-06-04T04:42:27;5.33;;;3.80;;
16504;SDS011;8365;51.030;4.696;2023-06-04T04:44:57;5.43;;;3.80;;
16504;SDS011;8365;51.030;4.696;2023-06-04T04:47:28;8.90;;;3.73;;
16504;SDS011;8365;51.030;4.696;2023-06-04T04:49:58;4.83;;;3.70;;
16504;SDS011;8365;51.030;4.696;2023-06-04T04:52:29;4.53;;;4.13;;
16504;SDS011;8365;51.030;4.696;2023-06-04T04:54:59;4.73;;;4.07;;
16504;SDS011;8365;51.030;4.696;2023-06-04T04:57:30;6.40;;;3.60;;
16504;SDS011;8365;51.030;4.696;2023-06-04T05:00:01;4.43;;;3.90;;
16504;SDS011;8365;51.030;4.696;2023-06-04T05:02:35;5.97;;;3.83;;
16504;SDS011;8365;51.030;4.696;2023-06-04T05:05:09;5.73;;;3.20;;
16504;SDS011;8365;51.030;4.696;2023-06-04T05:07:40;3.80;;;3.43;;
16504;SDS011;8365;51.030;4.696;2023-06-04T05:10:14;4.73;;;3.87;;
16504;SDS011;8365;51.030;4.696;2023-06-04T05:12:54;6.60;;;4.40;;
16504;SDS011;8365;51.030;4.696;2023-06-04T05:15:26;4.30;;;3.87;;
16504;SDS011;8365;51.030;4.696;2023-06-04T05:17:56;5.50;;;3.60;;
16504;SDS011;8365;51.030;4.696;2023-06-04T05:20:28;4.87;;;4.37;;
16504;SDS011;8365;51.030;4.696;2023-06-04T05:22:58;5.93;;;3.83;;
16504;SDS011;8365;51.030;4.696;2023-06-04T05:25:29;4.77;;;3.80;;
16504;SDS011;8365;51.030;4.696;2023-06-04T05:28:00;5.10;;;4.10;;
16504;SDS011;8365;51.030;4.696;2023-06-04T05:30:30;5.47;;;3.77;;
16504;SDS011;8365;51.030;4.696;2023-06-04T05:33:01;4.97;;;3.73;;
16504;SDS011;8365;51.030;4.696;2023-06-04T05:35:32;5.57;;;4.17;;
16504;SDS011;8365;51.030;4.696;2023-06-04T05:38:02;3.80;;;3.43;;
16504;SDS011;8365;51.030;4.696;2023-06-04T05:40:33;5.80;;;3.93;;
16504;SDS011;8365;51.030;4.696;2023-06-04T05:43:04;4.13;;;3.57;;
16504;SDS011;8365;51.030;4.696;2023-06-04T05:45:34;5.57;;;3.53;;
16504;SDS011;8365;51.030;4.696;2023-06-04T05:48:05;5.43;;;4.10;;
16504;SDS011;8365;51.030;4.696;2023-06-04T05:50:36;7.00;;;3.97;;
16504;SDS011;8365;51.030;4.696;2023-06-04T05:53:06;5.67;;;3.90;;
16504;SDS011;8365;51.030;4.696;2023-06-04T05:55:37;7.30;;;3.87;;
16504;SDS011;8365;51.030;4.696;2023-06-04T05:58:07;3.87;;;3.57;;
16504;SDS011;8365;51.030;4.696;2023-06-04T06:00:38;5.40;;;3.43;;
16504;SDS011;8365;51.030;4.696;2023-06-04T06:03:08;5.13;;;3.70;;
16504;SDS011;8365;51.030;4.696;2023-06-04T06:05:40;5.87;;;3.83;;
16504;SDS011;8365;51.030;4.696;2023-06-04T06:08:10;4.20;;;3.80;;
16504;SDS011;8365;51.030;4.696;2023-06-04T06:10:41;4.23;;;3.83;;
16504;SDS011;8365;51.030;4.696;2023-06-04T06:13:12;3.77;;;3.07;;
16504;SDS011;8365;51.030;4.696;2023-06-04T06:15:43;4.17;;;3.63;;
16504;SDS011;8365;51.030;4.696;2023-06-04T06:18:13;3.93;;;3.40;;
16504;SDS011;8365;51.030;4.696;2023-06-04T06:20:46;5.03;;;3.50;;
16504;SDS011;8365;51.030;4.696;2023-06-04T06:23:16;8.00;;;3.67;;
16504;SDS011;8365;51.030;4.696;2023-06-04T06:25:51;5.47;;;4.20;;
16504;SDS011;8365;51.030;4.696;2023-06-04T06:28:22;3.93;;;3.50;;
16504;SDS011;8365;51.030;4.696;2023-06-04T06:30:52;3.87;;;3.50;;
16504;SDS011;8365;51.030;4.696;2023-06-04T06:33:25;5.03;;;3.97;;
16504;SDS011;8365;51.030;4.696;2023-06-04T06:35:56;6.20;;;3.30;;
16504;SDS011;8365;51.030;4.696;2023-06-04T06:38:27;3.87;;;3.47;;
16504;SDS011;8365;51.030;4.696;2023-06-04T06:40:57;5.53;;;3.53;;
16504;SDS011;8365;51.030;4.696;2023-06-04T06:43:30;3.77;;;3.43;;
16504;SDS011;8365;51.030;4.696;2023-06-04T06:46:03;4.23;;;3.40;;
16504;SDS011;8365;51.030;4.696;2023-06-04T06:48:33;6.13;;;3.50;;
16504;SDS011;8365;51.030;4.696;2023-06-04T06:51:04;6.25;;;3.20;;
16504;SDS011;8365;51.030;4.696;2023-06-04T06:53:34;7.22;;;3.65;;
16504;SDS011;8365;51.030;4.696;2023-06-04T06:56:07;4.63;;;3.35;;
16504;SDS011;8365;51.030;4.696;2023-06-04T06:58:38;4.47;;;3.03;;
16504;SDS011;8365;51.030;4.696;2023-06-04T07:01:11;5.95;;;2.83;;
16504;SDS011;8365;51.030;4.696;2023-06-04T07:03:42;3.42;;;3.13;;
16504;SDS011;8365;51.030;4.696;2023-06-04T07:06:13;4.25;;;3.03;;
16504;SDS011;8365;51.030;4.696;2023-06-04T07:08:43;4.50;;;2.95;;
16504;SDS011;8365;51.030;4.696;2023-06-04T07:11:14;3.58;;;3.20;;
16504;SDS011;8365;51.030;4.696;2023-06-04T07:13:46;3.25;;;2.90;;
16504;SDS011;8365;51.030;4.696;2023-06-04T07:16:17;3.10;;;2.80;;
16504;SDS011;8365;51.030;4.696;2023-06-04T07:18:49;3.38;;;3.08;;
16504;SDS011;8365;51.030;4.696;2023-06-04T07:21:20;3.10;;;2.80;;
16504;SDS011;8365;51.030;4.696;2023-06-04T07:23:52;3.70;;;2.90;;
16504;SDS011;8365;51.030;4.696;2023-06-04T07:26:22;4.63;;;2.90;;
16504;SDS011;8365;51.030;4.696;2023-06-04T07:28:55;7.40;;;3.33;;
16504;SDS011;8365;51.030;4.696;2023-06-04T07:31:25;4.72;;;2.80;;
16504;SDS011;8365;51.030;4.696;2023-06-04T07:33:56;4.07;;;2.70;;
16504;SDS011;8365;51.030;4.696;2023-06-04T07:36:26;3.17;;;2.47;;
16504;SDS011;8365;51.030;4.696;2023-06-04T07:39:10;7.97;;;3.13;;
16504;SDS011;8365;51.030;4.696;2023-06-04T07:41:41;5.32;;;2.53;;
16504;SDS011;8365;51.030;4.696;2023-06-04T07:44:11;4.15;;;2.60;;
16504;SDS011;8365;51.030;4.696;2023-06-04T07:46:42;3.47;;;2.03;;
16504;SDS011;8365;51.030;4.696;2023-06-04T07:49:14;2.42;;;2.17;;
16504;SDS011;8365;51.030;4.696;2023-06-04T07:51:45;2.40;;;2.20;;
16504;SDS011;8365;51.030;4.696;2023-06-04T07:54:16;3.15;;;2.30;;
16504;SDS011;8365;51.030;4.696;2023-06-04T07:56:46;3.03;;;2.15;;
16504;SDS011;8365;51.030;4.696;2023-06-04T07:59:17;5.15;;;2.20;;
16504;SDS011;8365;51.030;4.696;2023-06-04T08:01:49;4.72;;;2.22;;
16504;SDS011;8365;51.030;4.696;2023-06-04T08:04:20;3.35;;;2.40;;
16504;SDS011;8365;51.030;4.696;2023-06-04T08:06:51;2.72;;;2.00;;
16504;SDS011;8365;51.030;4.696;2023-06-04T08:09:21;2.53;;;2.33;;
16504;SDS011;8365;51.030;4.696;2023-06-04T08:11:54;3.42;;;2.05;;
16504;SDS011;8365;51.030;4.696;2023-06-04T08:14:25;3.92;;;2.33;;
16504;SDS011;8365;51.030;4.696;2023-06-04T08:16:57;2.15;;;1.90;;
16504;SDS011;8365;51.030;4.696;2023-06-04T08:19:27;3.15;;;2.00;;
16504;SDS011;8365;51.030;4.696;2023-06-04T08:21:58;2.95;;;2.08;;
16504;SDS011;8365;51.030;4.696;2023-06-04T08:24:28;3.30;;;1.90;;
16504;SDS011;8365;51.030;4.696;2023-06-04T08:26:59;3.03;;;2.10;;
16504;SDS011;8365;51.030;4.696;2023-06-04T08:29:30;2.15;;;1.98;;
16504;SDS011;8365;51.030;4.696;2023-06-04T08:32:00;2.00;;;1.80;;
16504;SDS011;8365;51.030;4.696;2023-06-04T08:34:32;2.55;;;2.00;;
16504;SDS011;8365;51.030;4.696;2023-06-04T08:37:03;4.72;;;1.90;;
16504;SDS011;8365;51.030;4.696;2023-06-04T08:39:33;3.63;;;2.20;;
16504;SDS011;8365;51.030;4.696;2023-06-04T08:42:05;1.80;;;1.70;;
16504;SDS011;8365;51.030;4.696;2023-06-04T08:44:39;2.45;;;1.73;;
16504;SDS011;8365;51.030;4.696;2023-06-04T08:47:10;2.70;;;1.88;;
16504;SDS011;8365;51.030;4.696;2023-06-04T08:49:43;3.30;;;2.15;;
16504;SDS011;8365;51.030;4.696;2023-06-04T08:52:17;3.13;;;1.60;;
16504;SDS011;8365;51.030;4.696;2023-06-04T08:54:51;3.28;;;1.88;;
16504;SDS011;8365;51.030;4.696;2023-06-04T08:57:24;2.33;;;1.88;;
16504;SDS011;8365;51.030;4.696;2023-06-04T08:59:54;2.03;;;1.80;;
16504;SDS011;8365;51.030;4.696;2023-06-04T09:02:25;3.30;;;1.98;;
16504;SDS011;8365;51.030;4.696;2023-06-04T09:04:57;3.03;;;1.80;;
16504;SDS011;8365;51.030;4.696;2023-06-04T09:07:28;3.13;;;1.92;;
16504;SDS011;8365;51.030;4.696;2023-06-04T09:10:01;4.10;;;2.05;;
16504;SDS011;8365;51.030;4.696;2023-06-04T09:12:31;3.65;;;1.92;;
16504;SDS011;8365;51.030;4.696;2023-06-04T09:15:03;2.10;;;1.80;;
16504;SDS011;8365;51.030;4.696;2023-06-04T09:17:36;1.75;;;1.60;;
16504;SDS011;8365;51.030;4.696;2023-06-04T09:20:07;2.10;;;1.88;;
16504;SDS011;8365;51.030;4.696;2023-06-04T09:22:40;5.03;;;1.95;;
16504;SDS011;8365;51.030;4.696;2023-06-04T09:25:18;4.00;;;1.95;;
16504;SDS011;8365;51.030;4.696;2023-06-04T09:27:50;2.08;;;1.90;;
16504;SDS011;8365;51.030;4.696;2023-06-04T09:30:21;2.45;;;1.92;;
16504;SDS011;8365;51.030;4.696;2023-06-04T09:32:53;2.05;;;1.80;;
16504;SDS011;8365;51.030;4.696;2023-06-04T09:35:23;3.50;;;2.00;;
16504;SDS011;8365;51.030;4.696;2023-06-04T09:37:57;4.75;;;2.20;;
16504;SDS011;8365;51.030;4.696;2023-06-04T09:40:37;3.25;;;1.90;;
16504;SDS011;8365;51.030;4.696;2023-06-04T09:43:08;2.05;;;1.85;;
16504;SDS011;8365;51.030;4.696;2023-06-04T09:45:43;3.40;;;1.90;;
16504;SDS011;8365;51.030;4.696;2023-06-04T09:48:20;2.75;;;1.88;;
16504;SDS011;8365;51.030;4.696;2023-06-04T09:50:51;4.78;;;2.00;;
16504;SDS011;8365;51.030;4.696;2023-06-04T09:53:21;2.40;;;2.05;;
16504;SDS011;8365;51.030;4.696;2023-06-04T09:55:58;3.50;;;2.03;;
16504;SDS011;8365;51.030;4.696;2023-06-04T09:58:31;4.28;;;1.90;;
16504;SDS011;8365;51.030;4.696;2023-06-04T10:01:04;4.38;;;2.38;;
16504;SDS011;8365;51.030;4.696;2023-06-04T10:03:36;5.47;;;2.20;;
16504;SDS011;8365;51.030;4.696;2023-06-04T10:06:07;5.15;;;1.83;;
16504;SDS011;8365;51.030;4.696;2023-06-04T10:08:38;2.92;;;1.90;;
16504;SDS011;8365;51.030;4.696;2023-06-04T10:11:13;4.55;;;1.95;;
16504;SDS011;8365;51.030;4.696;2023-06-04T10:13:48;4.68;;;2.13;;
16504;SDS011;8365;51.030;4.696;2023-06-04T10:16:26;4.25;;;2.17;;
16504;SDS011;8365;51.030;4.696;2023-06-04T10:19:04;2.30;;;1.92;;
16504;SDS011;8365;51.030;4.696;2023-06-04T10:21:37;3.85;;;2.00;;
16504;SDS011;8365;51.030;4.696;2023-06-04T10:24:10;5.65;;;2.30;;
16504;SDS011;8365;51.030;4.696;2023-06-04T10:26:42;7.28;;;2.50;;
16504;SDS011;8365;51.030;4.696;2023-06-04T10:29:12;4.03;;;2.17;;
16504;SDS011;8365;51.030;4.696;2023-06-04T10:31:44;2.55;;;1.90;;
16504;SDS011;8365;51.030;4.696;2023-06-04T10:34:15;2.20;;;1.70;;
16504;SDS011;8365;51.030;4.696;2023-06-04T10:36:47;4.70;;;2.00;;
16504;SDS011;8365;51.030;4.696;2023-06-04T10:39:30;1.90;;;1.70;;
16504;SDS011;8365;51.030;4.696;2023-06-04T10:42:03;2.10;;;1.85;;
16504;SDS011;8365;51.030;4.696;2023-06-04T10:44:47;4.22;;;1.85;;
16504;SDS011;8365;51.030;4.696;2023-06-04T10:49:54;2.10;;;1.80;;
16504;SDS011;8365;51.030;4.696;2023-06-04T10:52:25;3.17;;;1.90;;
16504;SDS011;8365;51.030;4.696;2023-06-04T10:55:03;5.60;;;3.80;;
16504;SDS011;8365;51.030;4.696;2023-06-04T10:57:34;3.38;;;2.08;;
16504;SDS011;8365;51.030;4.696;2023-06-04T11:00:06;2.58;;;2.00;;
16504;SDS011;8365;51.030;4.696;2023-06-04T11:02:49;2.20;;;2.00;;
16504;SDS011;8365;51.030;4.696;2023-06-04T11:05:38;3.58;;;1.83;;
16504;SDS011;8365;51.030;4.696;2023-06-04T11:08:08;4.07;;;2.10;;
16504;SDS011;8365;51.030;4.696;2023-06-04T11:10:43;2.42;;;2.05;;
16504;SDS011;8365;51.030;4.696;2023-06-04T11:13:15;2.45;;;1.85;;
16504;SDS011;8365;51.030;4.696;2023-06-04T11:15:45;2.42;;;2.10;;
16504;SDS011;8365;51.030;4.696;2023-06-04T11:18:19;2.08;;;1.95;;
16504;SDS011;8365;51.030;4.696;2023-06-04T11:20:59;6.28;;;2.05;;
16504;SDS011;8365;51.030;4.696;2023-06-04T11:23:30;2.65;;;1.90;;
16504;SDS011;8365;51.030;4.696;2023-06-04T11:26:02;4.40;;;1.88;;
16504;SDS011;8365;51.030;4.696;2023-06-04T11:28:33;2.53;;;2.00;;
16504;SDS011;8365;51.030;4.696;2023-06-04T11:31:04;2.22;;;2.03;;
16504;SDS011;8365;51.030;4.696;2023-06-04T11:33:45;1.92;;;1.80;;
16504;SDS011;8365;51.030;4.696;2023-06-04T11:36:25;2.33;;;1.90;;
16504;SDS011;8365;51.030;4.696;2023-06-04T11:38:57;2.30;;;1.88;;
16504;SDS011;8365;51.030;4.696;2023-06-04T11:41:29;2.38;;;2.05;;
16504;SDS011;8365;51.030;4.696;2023-06-04T11:44:04;2.10;;;1.90;;
16504;SDS011;8365;51.030;4.696;2023-06-04T11:46:39;3.67;;;1.60;;
16504;SDS011;8365;51.030;4.696;2023-06-04T11:49:17;4.35;;;1.92;;
16504;SDS011;8365;51.030;4.696;2023-06-04T11:51:49;2.35;;;1.83;;
16504;SDS011;8365;51.030;4.696;2023-06-04T11:54:21;5.18;;;2.10;;
16504;SDS011;8365;51.030;4.696;2023-06-04T11:56:51;4.75;;;1.80;;
16504;SDS011;8365;51.030;4.696;2023-06-04T11:59:23;3.65;;;2.05;;
16504;SDS011;8365;51.030;4.696;2023-06-04T12:01:53;4.85;;;1.90;;
16504;SDS011;8365;51.030;4.696;2023-06-04T12:04:24;5.43;;;2.00;;
16504;SDS011;8365;51.030;4.696;2023-06-04T12:07:00;3.22;;;1.80;;
16504;SDS011;8365;51.030;4.696;2023-06-04T12:09:32;4.35;;;1.80;;
16504;SDS011;8365;51.030;4.696;2023-06-04T12:12:08;3.30;;;2.08;;
16504;SDS011;8365;51.030;4.696;2023-06-04T12:14:38;2.33;;;1.75;;
16504;SDS011;8365;51.030;4.696;2023-06-04T12:17:09;2.05;;;1.70;;
16504;SDS011;8365;51.030;4.696;2023-06-04T12:19:46;1.88;;;1.77;;
16504;SDS011;8365;51.030;4.696;2023-06-04T12:22:20;2.13;;;1.92;;
16504;SDS011;8365;51.030;4.696;2023-06-04T12:24:51;3.17;;;1.98;;
16504;SDS011;8365;51.030;4.696;2023-06-04T12:27:24;3.00;;;1.70;;
16504;SDS011;8365;51.030;4.696;2023-06-04T12:29:59;2.40;;;1.85;;
16504;SDS011;8365;51.030;4.696;2023-06-04T12:32:35;1.77;;;1.67;;
16504;SDS011;8365;51.030;4.696;2023-06-04T12:35:06;4.35;;;2.00;;
16504;SDS011;8365;51.030;4.696;2023-06-04T12:37:37;2.83;;;1.90;;
16504;SDS011;8365;51.030;4.696;2023-06-04T12:40:07;1.85;;;1.75;;
16504;SDS011;8365;51.030;4.696;2023-06-04T12:42:39;2.20;;;1.95;;
16504;SDS011;8365;51.030;4.696;2023-06-04T12:45:10;4.45;;;1.70;;
16504;SDS011;8365;51.030;4.696;2023-06-04T12:47:43;2.45;;;1.88;;
16504;SDS011;8365;51.030;4.696;2023-06-04T12:50:16;3.92;;;2.00;;
16504;SDS011;8365;51.030;4.696;2023-06-04T12:52:48;1.98;;;1.80;;
16504;SDS011;8365;51.030;4.696;2023-06-04T12:55:21;2.63;;;2.13;;
16504;SDS011;8365;51.030;4.696;2023-06-04T12:57:51;3.85;;;1.77;;
16504;SDS011;8365;51.030;4.696;2023-06-04T13:00:22;4.47;;;2.05;;
16504;SDS011;8365;51.030;4.696;2023-06-04T13:02:52;2.03;;;1.92;;
16504;SDS011;8365;51.030;4.696;2023-06-04T13:05:23;1.63;;;1.52;;
16504;SDS011;8365;51.030;4.696;2023-06-04T13:07:54;1.90;;;1.80;;
16504;SDS011;8365;51.030;4.696;2023-06-04T13:10:25;2.00;;;1.77;;
16504;SDS011;8365;51.030;4.696;2023-06-04T13:12:55;4.00;;;1.90;;
16504;SDS011;8365;51.030;4.696;2023-06-04T13:15:26;3.00;;;1.90;;
16504;SDS011;8365;51.030;4.696;2023-06-04T13:17:57;3.60;;;1.88;;
16504;SDS011;8365;51.030;4.696;2023-06-04T13:20:29;5.03;;;2.20;;
16504;SDS011;8365;51.030;4.696;2023-06-04T13:22:59;4.28;;;1.85;;
16504;SDS011;8365;51.030;4.696;2023-06-04T13:25:30;3.20;;;2.20;;
16504;SDS011;8365;51.030;4.696;2023-06-04T13:28:02;2.35;;;1.83;;
16504;SDS011;8365;51.030;4.696;2023-06-04T13:30:36;3.70;;;2.13;;
16504;SDS011;8365;51.030;4.696;2023-06-04T13:33:07;3.95;;;1.80;;
16504;SDS011;8365;51.030;4.696;2023-06-04T13:35:37;2.40;;;2.00;;
16504;SDS011;8365;51.030;4.696;2023-06-04T13:38:08;2.60;;;2.13;;
16504;SDS011;8365;51.030;4.696;2023-06-04T13:40:39;2.95;;;1.80;;
16504;SDS011;8365;51.030;4.696;2023-06-04T13:43:09;2.45;;;1.90;;
16504;SDS011;8365;51.030;4.696;2023-06-04T13:45:40;2.83;;;1.90;;
16504;SDS011;8365;51.030;4.696;2023-06-04T13:48:11;4.40;;;1.90;;
16504;SDS011;8365;51.030;4.696;2023-06-04T13:50:42;2.47;;;1.80;;
16504;SDS011;8365;51.030;4.696;2023-06-04T13:53:12;2.85;;;1.70;;
16504;SDS011;8365;51.030;4.696;2023-06-04T13:55:43;2.33;;;2.13;;
16504;SDS011;8365;51.030;4.696;2023-06-04T13:58:13;2.60;;;1.80;;
16504;SDS011;8365;51.030;4.696;2023-06-04T14:00:45;2.83;;;2.10;;
16504;SDS011;8365;51.030;4.696;2023-06-04T14:03:15;2.80;;;1.92;;
16504;SDS011;8365;51.030;4.696;2023-06-04T14:05:46;2.78;;;1.92;;
16504;SDS011;8365;51.030;4.696;2023-06-04T14:08:16;1.90;;;1.80;;
16504;SDS011;8365;51.030;4.696;2023-06-04T14:10:47;2.10;;;1.90;;
16504;SDS011;8365;51.030;4.696;2023-06-04T14:13:17;6.60;;;2.00;;
16504;SDS011;8365;51.030;4.696;2023-06-04T14:15:48;2.22;;;1.80;;
16504;SDS011;8365;51.030;4.696;2023-06-04T14:18:18;3.33;;;2.17;;
16504;SDS011;8365;51.030;4.696;2023-06-04T14:20:49;3.63;;;1.90;;
16504;SDS011;8365;51.030;4.696;2023-06-04T14:23:19;4.07;;;2.10;;
16504;SDS011;8365;51.030;4.696;2023-06-04T14:25:52;2.88;;;2.00;;
16504;SDS011;8365;51.030;4.696;2023-06-04T14:28:22;4.38;;;2.20;;
16504;SDS011;8365;51.030;4.696;2023-06-04T14:30:53;3.10;;;1.90;;
16504;SDS011;8365;51.030;4.696;2023-06-04T14:33:23;1.90;;;1.73;;
16504;SDS011;8365;51.030;4.696;2023-06-04T14:35:56;7.50;;;2.30;;
16504;SDS011;8365;51.030;4.696;2023-06-04T14:38:27;2.58;;;2.03;;
16504;SDS011;8365;51.030;4.696;2023-06-04T14:40:58;3.33;;;1.73;;
16504;SDS011;8365;51.030;4.696;2023-06-04T14:43:29;2.65;;;1.75;;
16504;SDS011;8365;51.030;4.696;2023-06-04T14:46:00;2.78;;;2.00;;
16504;SDS011;8365;51.030;4.696;2023-06-04T14:48:30;3.28;;;1.80;;
16504;SDS011;8365;51.030;4.696;2023-06-04T14:51:01;3.28;;;1.77;;
16504;SDS011;8365;51.030;4.696;2023-06-04T14:53:31;2.30;;;1.63;;
16504;SDS011;8365;51.030;4.696;2023-06-04T14:56:02;3.75;;;1.95;;
16504;SDS011;8365;51.030;4.696;2023-06-04T14:58:35;2.85;;;2.00;;
16504;SDS011;8365;51.030;4.696;2023-06-04T15:01:05;2.20;;;2.00;;
16504;SDS011;8365;51.030;4.696;2023-06-04T15:03:39;2.10;;;1.90;;
16504;SDS011;8365;51.030;4.696;2023-06-04T15:06:10;3.30;;;2.13;;
16504;SDS011;8365;51.030;4.696;2023-06-04T15:08:40;3.00;;;1.98;;
16504;SDS011;8365;51.030;4.696;2023-06-04T15:11:11;2.00;;;1.90;;
16504;SDS011;8365;51.030;4.696;2023-06-04T15:13:41;2.25;;;1.65;;
16504;SDS011;8365;51.030;4.696;2023-06-04T15:16:12;3.15;;;2.30;;
16504;SDS011;8365;51.030;4.696;2023-06-04T15:18:43;2.17;;;1.85;;
16504;SDS011;8365;51.030;4.696;2023-06-04T15:21:13;4.78;;;2.10;;
16504;SDS011;8365;51.030;4.696;2023-06-04T15:23:43;1.95;;;1.85;;
16504;SDS011;8365;51.030;4.696;2023-06-04T15:26:18;2.67;;;2.00;;
16504;SDS011;8365;51.030;4.696;2023-06-04T15:28:48;2.03;;;1.92;;
16504;SDS011;8365;51.030;4.696;2023-06-04T15:31:19;3.58;;;1.92;;
16504;SDS011;8365;51.030;4.696;2023-06-04T15:33:50;2.75;;;1.73;;